createdAt,value
2022-10-31T00:00:42.463Z,1009.09
2022-10-31T00:01:42.482Z,1009.09
2022-10-31T00:02:42.463Z,1009.08
2022-10-31T00:03:42.364Z,1009.08
2022-10-31T00:04:42.364Z,1009.07
2022-10-31T00:05:42.349Z,1009.08
2022-10-31T00:06:42.351Z,1009.08
2022-10-31T00:07:42.324Z,1009.08
2022-10-31T00:08:42.304Z,1009.09
2022-10-31T00:09:42.298Z,1009.10
2022-10-31T00:10:42.289Z,1009.10
2022-10-31T00:11:42.281Z,1009.09
2022-10-31T00:12:42.270Z,1009.08
2022-10-31T00:13:42.253Z,1009.08
2022-10-31T00:14:42.250Z,1009.08
2022-10-31T00:15:42.240Z,1009.07
2022-10-31T00:16:42.219Z,1009.07
2022-10-31T00:17:42.225Z,1009.07
2022-10-31T00:18:42.209Z,1009.07
2022-10-31T00:19:42.201Z,1009.08
2022-10-31T00:20:42.181Z,1009.09
2022-10-31T00:21:42.164Z,1009.10
2022-10-31T00:22:42.176Z,1009.11
2022-10-31T00:23:42.156Z,1009.12
2022-10-31T00:24:42.131Z,1009.13
2022-10-31T00:25:42.136Z,1009.14
2022-10-31T00:26:42.114Z,1009.16
2022-10-31T00:27:42.113Z,1009.18
2022-10-31T00:28:42.084Z,1009.19
2022-10-31T00:29:42.101Z,1009.20
2022-10-31T00:30:42.112Z,1009.21
2022-10-31T00:31:42.118Z,1009.22
2022-10-31T00:32:42.051Z,1009.23
2022-10-31T00:33:42.040Z,1009.23
2022-10-31T00:34:42.019Z,1009.24
2022-10-31T00:35:42.035Z,1009.24
2022-10-31T00:36:41.996Z,1009.24
2022-10-31T00:37:42.000Z,1009.23
2022-10-31T00:38:41.980Z,1009.23
2022-10-31T00:39:41.969Z,1009.24
2022-10-31T00:40:41.954Z,1009.23
2022-10-31T00:41:41.963Z,1009.23
2022-10-31T00:42:41.930Z,1009.24
2022-10-31T00:43:41.939Z,1009.24
2022-10-31T00:44:41.929Z,1009.25
2022-10-31T00:45:41.928Z,1009.25
2022-10-31T00:46:41.892Z,1009.24
2022-10-31T00:47:41.920Z,1009.25
2022-10-31T00:48:41.915Z,1009.27
2022-10-31T00:49:41.871Z,1009.29
2022-10-31T00:50:41.842Z,1009.31
2022-10-31T00:51:41.846Z,1009.31
2022-10-31T00:52:41.821Z,1009.33
2022-10-31T00:53:41.817Z,1009.34
2022-10-31T00:54:41.879Z,1009.34
2022-10-31T00:55:41.795Z,1009.35
2022-10-31T00:56:41.783Z,1009.33
2022-10-31T00:57:41.784Z,1009.30
2022-10-31T00:58:41.757Z,1009.29
2022-10-31T00:59:41.793Z,1009.28
2022-10-31T01:00:41.735Z,1009.28
2022-10-31T01:01:41.886Z,1009.28
2022-10-31T01:02:41.882Z,1009.29
2022-10-31T01:03:41.720Z,1009.30
2022-10-31T01:04:41.691Z,1009.31
2022-10-31T01:05:41.680Z,1009.33
2022-10-31T01:06:41.666Z,1009.33
2022-10-31T01:07:41.661Z,1009.34
2022-10-31T01:08:41.651Z,1009.33
2022-10-31T01:09:41.721Z,1009.33
2022-10-31T01:10:41.646Z,1009.32
2022-10-31T01:11:41.618Z,1009.33
2022-10-31T01:12:41.607Z,1009.33
2022-10-31T01:13:41.596Z,1009.33
2022-10-31T01:14:41.798Z,1009.33
2022-10-31T01:15:41.590Z,1009.33
2022-10-31T01:16:41.561Z,1009.32
2022-10-31T01:17:41.572Z,1009.32
2022-10-31T01:18:41.536Z,1009.33
2022-10-31T01:19:41.550Z,1009.33
2022-10-31T01:20:41.522Z,1009.34
2022-10-31T01:21:41.503Z,1009.35
2022-10-31T01:22:41.510Z,1009.35
2022-10-31T01:23:41.483Z,1009.35
2022-10-31T01:24:41.475Z,1009.35
2022-10-31T01:25:41.487Z,1009.34
2022-10-31T01:26:41.496Z,1009.32
2022-10-31T01:27:41.447Z,1009.32
2022-10-31T01:28:41.439Z,1009.31
2022-10-31T01:29:41.421Z,1009.32
2022-10-31T01:30:41.410Z,1009.31
2022-10-31T01:31:41.424Z,1009.31
2022-10-31T01:32:41.381Z,1009.29
2022-10-31T01:33:41.383Z,1009.29
2022-10-31T01:34:41.386Z,1009.28
2022-10-31T01:35:41.358Z,1009.27
2022-10-31T01:36:41.357Z,1009.26
2022-10-31T01:37:41.356Z,1009.25
2022-10-31T01:38:41.320Z,1009.25
2022-10-31T01:39:41.414Z,1009.25
2022-10-31T01:40:41.309Z,1009.24
2022-10-31T01:41:41.315Z,1009.23
2022-10-31T01:42:41.275Z,1009.23
2022-10-31T01:43:41.304Z,1009.22
2022-10-31T01:44:41.259Z,1009.22
2022-10-31T01:45:41.258Z,1009.22
2022-10-31T01:46:41.250Z,1009.22
2022-10-31T01:47:41.229Z,1009.21
2022-10-31T01:48:43.294Z,1009.21
2022-10-31T01:49:41.228Z,1009.20
2022-10-31T01:50:41.186Z,1009.20
2022-10-31T01:51:41.243Z,1009.19
2022-10-31T01:52:41.188Z,1009.17
2022-10-31T01:53:41.154Z,1009.16
2022-10-31T01:54:41.159Z,1009.15
2022-10-31T01:55:41.140Z,1009.14
2022-10-31T01:56:41.118Z,1009.14
2022-10-31T01:57:41.123Z,1009.15
2022-10-31T01:58:41.152Z,1009.16
2022-10-31T01:59:41.094Z,1009.16
2022-10-31T02:00:41.109Z,1009.16
2022-10-31T02:01:41.218Z,1009.14
2022-10-31T02:02:41.242Z,1009.13
2022-10-31T02:03:41.056Z,1009.13
2022-10-31T02:04:41.060Z,1009.13
2022-10-31T02:05:41.026Z,1009.12
2022-10-31T02:06:41.011Z,1009.12
2022-10-31T02:07:41.018Z,1009.13
2022-10-31T02:08:40.992Z,1009.13
2022-10-31T02:09:41.002Z,1009.13
2022-10-31T06:01:12.953Z,1008.97
2022-10-31T06:02:13.845Z,1008.97
2022-10-31T06:03:13.847Z,1008.97
2022-10-31T06:04:13.869Z,1008.96
2022-10-31T06:05:13.867Z,1008.95
2022-10-31T06:06:13.863Z,1008.95
2022-10-31T06:07:13.788Z,1008.94
2022-10-31T06:08:13.773Z,1008.92
2022-10-31T06:09:13.945Z,1008.91
2022-10-31T06:10:13.756Z,1008.91
2022-10-31T06:11:13.751Z,1008.90
2022-10-31T06:12:13.764Z,1008.90
2022-10-31T06:13:13.766Z,1008.90
2022-10-31T06:14:13.716Z,1008.90
2022-10-31T06:15:23.700Z,1008.88
2022-10-31T06:16:13.691Z,1008.88
2022-10-31T06:17:13.676Z,1008.87
2022-10-31T06:18:13.685Z,1008.86
2022-10-31T06:19:13.658Z,1008.85
2022-10-31T06:20:13.665Z,1008.85
2022-10-31T06:21:16.355Z,1008.85
2022-10-31T06:22:13.656Z,1008.87
2022-10-31T06:23:13.627Z,1008.88
2022-10-31T06:24:13.617Z,1008.89
2022-10-31T06:25:13.621Z,1008.90
2022-10-31T06:26:13.639Z,1008.90
2022-10-31T06:27:13.598Z,1008.91
2022-10-31T06:28:13.562Z,1008.92
2022-10-31T06:29:13.617Z,1008.94
2022-10-31T06:30:13.551Z,1008.95
2022-10-31T06:31:13.542Z,1008.96
2022-10-31T06:32:13.524Z,1008.96
2022-10-31T06:33:13.520Z,1008.95
2022-10-31T06:34:13.495Z,1008.93
2022-10-31T06:35:13.509Z,1008.92
2022-10-31T06:36:13.516Z,1008.92
2022-10-31T06:37:13.470Z,1008.91
2022-10-31T06:38:13.460Z,1008.91
2022-10-31T06:39:13.452Z,1008.91
2022-10-31T06:40:13.469Z,1008.91
2022-10-31T06:41:13.423Z,1008.91
2022-10-31T06:42:13.421Z,1008.90
2022-10-31T06:43:13.406Z,1008.90
2022-10-31T06:44:13.394Z,1008.89
2022-10-31T06:45:13.404Z,1008.90
2022-10-31T06:46:13.366Z,1008.91
2022-10-31T06:47:13.362Z,1008.94
2022-10-31T06:48:17.943Z,1008.95
2022-10-31T06:49:13.356Z,1008.97
2022-10-31T06:50:13.326Z,1008.98
2022-10-31T06:51:13.336Z,1009.00
2022-10-31T06:52:13.305Z,1009.01
2022-10-31T06:53:13.303Z,1009.03
2022-10-31T06:54:13.282Z,1009.04
2022-10-31T06:55:13.289Z,1009.05
2022-10-31T06:56:13.259Z,1009.04
2022-10-31T06:57:13.267Z,1009.03
2022-10-31T06:58:13.247Z,1009.02
2022-10-31T06:59:13.235Z,1009.01
2022-10-31T07:00:13.225Z,1009.01
2022-10-31T07:01:13.316Z,1009.01
2022-10-31T07:02:13.351Z,1009.02
2022-10-31T07:03:13.222Z,1009.03
2022-10-31T07:04:13.178Z,1009.03
2022-10-31T07:05:13.164Z,1009.03
2022-10-31T07:06:13.156Z,1009.02
2022-10-31T07:07:13.177Z,1009.03
2022-10-31T07:08:13.146Z,1009.04
2022-10-31T07:09:13.153Z,1009.05
2022-10-31T07:11:13.109Z,1009.08
2022-10-31T07:12:13.118Z,1009.11
2022-10-31T07:13:13.095Z,1009.12
2022-10-31T07:14:13.091Z,1009.12
2022-10-31T07:15:13.072Z,1009.11
2022-10-31T07:16:13.091Z,1009.11
2022-10-31T07:17:13.048Z,1009.11
2022-10-31T07:18:13.049Z,1009.12
2022-10-31T07:19:13.022Z,1009.12
2022-10-31T07:20:13.025Z,1009.12
2022-10-31T07:21:13.022Z,1009.13
2022-10-31T07:22:12.985Z,1009.12
2022-10-31T07:23:12.988Z,1009.13
2022-10-31T07:24:12.963Z,1009.13
2022-10-31T07:25:12.953Z,1009.14
2022-10-31T07:26:12.946Z,1009.14
2022-10-31T07:27:12.959Z,1009.13
2022-10-31T07:28:12.920Z,1009.11
2022-10-31T07:29:12.922Z,1009.09
2022-10-31T07:30:12.897Z,1009.09
2022-10-31T07:31:12.885Z,1009.09
2022-10-31T07:32:12.894Z,1009.09
2022-10-31T07:33:12.906Z,1009.10
2022-10-31T07:34:12.854Z,1009.11
2022-10-31T07:35:12.861Z,1009.10
2022-10-31T07:36:12.832Z,1009.11
2022-10-31T07:37:12.831Z,1009.11
2022-10-31T07:38:12.827Z,1009.11
2022-10-31T07:39:12.844Z,1009.13
2022-10-31T07:40:12.795Z,1009.15
2022-10-31T07:41:12.791Z,1009.16
2022-10-31T07:42:12.773Z,1009.16
2022-10-31T07:43:14.631Z,1009.15
2022-10-31T07:44:12.776Z,1009.15
2022-10-31T07:45:12.742Z,1009.14
2022-10-31T07:46:12.743Z,1009.15
2022-10-31T07:47:12.723Z,1009.15
2022-10-31T07:48:12.705Z,1009.15
2022-10-31T07:49:12.721Z,1009.15
2022-10-31T07:50:12.710Z,1009.15
2022-10-31T07:51:12.715Z,1009.14
2022-10-31T07:52:12.664Z,1009.13
2022-10-31T07:53:12.653Z,1009.13
2022-10-31T07:54:12.647Z,1009.14
2022-10-31T07:55:12.657Z,1009.15
2022-10-31T07:56:12.633Z,1009.15
2022-10-31T07:57:12.643Z,1009.16
2022-10-31T07:58:12.599Z,1009.16
2022-10-31T07:59:12.597Z,1009.18
2022-10-31T08:00:12.575Z,1009.18
2022-10-31T08:02:12.553Z,1009.19
2022-10-31T08:03:12.548Z,1009.19
2022-10-31T08:04:12.537Z,1009.19
2022-10-31T08:05:12.526Z,1009.18
2022-10-31T08:06:12.510Z,1009.19
2022-10-31T08:07:12.545Z,1009.17
2022-10-31T08:08:12.494Z,1009.17
2022-10-31T08:09:12.498Z,1009.16
2022-10-31T08:10:12.477Z,1009.16
2022-10-31T08:11:12.466Z,1009.15
2022-10-31T08:12:12.474Z,1009.14
2022-10-31T08:13:12.492Z,1009.12
2022-10-31T08:14:12.432Z,1009.12
2022-10-31T08:15:12.422Z,1009.11
2022-10-31T08:16:12.415Z,1009.10
2022-10-31T08:17:12.403Z,1009.10
2022-10-31T08:18:12.403Z,1009.09
2022-10-31T08:19:12.401Z,1009.09
2022-10-31T08:20:12.375Z,1009.09
2022-10-31T08:21:12.354Z,1009.08
2022-10-31T08:22:12.347Z,1009.07
2022-10-31T08:23:12.340Z,1009.07
2022-10-31T08:24:12.336Z,1009.07
2022-10-31T08:25:12.311Z,1009.07
2022-10-31T08:26:12.298Z,1009.07
2022-10-31T08:27:12.294Z,1009.06
2022-10-31T08:28:12.289Z,1009.05
2022-10-31T08:29:12.277Z,1009.04
2022-10-31T08:30:12.278Z,1009.03
2022-10-31T08:31:12.251Z,1009.02
2022-10-31T08:32:12.231Z,1009.03
2022-10-31T08:33:12.228Z,1009.03
2022-10-31T08:34:12.208Z,1009.03
2022-10-31T08:35:12.216Z,1009.05
2022-10-31T08:36:12.211Z,1009.06
2022-10-31T08:37:12.184Z,1009.07
2022-10-31T08:38:12.164Z,1009.07
2022-10-31T08:39:12.157Z,1009.06
2022-10-31T08:40:12.150Z,1009.04
2022-10-31T08:41:12.138Z,1009.02
2022-10-31T08:42:12.141Z,1009.01
2022-10-31T08:43:12.115Z,1008.99
2022-10-31T08:44:12.110Z,1008.98
2022-10-31T08:45:12.099Z,1008.97
2022-10-31T08:46:12.084Z,1008.96
2022-10-31T08:47:12.083Z,1008.94
2022-10-31T08:48:12.081Z,1008.94
2022-10-31T08:49:12.060Z,1008.95
2022-10-31T08:50:12.040Z,1008.95
2022-10-31T08:51:12.035Z,1008.94
2022-10-31T08:52:14.601Z,1008.93
2022-10-31T08:53:12.029Z,1008.91
2022-10-31T08:54:12.007Z,1008.90
2022-10-31T08:55:12.009Z,1008.90
2022-10-31T08:56:11.978Z,1008.89
2022-10-31T08:57:11.973Z,1008.90
2022-10-31T08:58:11.957Z,1008.90
2022-10-31T08:59:11.952Z,1008.90
2022-10-31T09:00:11.950Z,1008.90
2022-10-31T09:01:12.175Z,1008.91
2022-10-31T09:02:12.001Z,1008.90
2022-10-31T09:03:11.908Z,1008.91
2022-10-31T09:04:11.893Z,1008.92
2022-10-31T09:05:11.891Z,1008.92
2022-10-31T09:06:11.938Z,1008.93
2022-10-31T09:07:27.377Z,1008.93
2022-10-31T09:08:16.439Z,1008.93
2022-10-31T09:09:11.855Z,1008.91
2022-10-31T09:10:11.852Z,1008.90
2022-10-31T09:11:11.826Z,1008.90
2022-10-31T09:12:11.806Z,1008.90
2022-10-31T09:13:11.795Z,1008.89
2022-10-31T09:14:11.818Z,1008.89
2022-10-31T09:15:11.773Z,1008.87
2022-10-31T09:16:11.802Z,1008.86
2022-10-31T09:17:11.751Z,1008.84
2022-10-31T09:18:11.759Z,1008.81
2022-10-31T09:19:11.799Z,1008.79
2022-10-31T09:20:11.729Z,1008.78
2022-10-31T09:21:11.719Z,1008.76
2022-10-31T09:22:11.718Z,1008.76
2022-10-31T09:23:11.694Z,1008.76
2022-10-31T09:24:11.676Z,1008.76
2022-10-31T09:25:11.670Z,1008.75
2022-10-31T09:26:11.663Z,1008.73
2022-10-31T09:27:11.664Z,1008.72
2022-10-31T09:28:11.637Z,1008.70
2022-10-31T09:29:11.633Z,1008.69
2022-10-31T09:30:11.614Z,1008.69
2022-10-31T09:31:11.615Z,1008.69
2022-10-31T09:32:11.588Z,1008.68
2022-10-31T09:33:11.599Z,1008.68
2022-10-31T09:34:11.586Z,1008.68
2022-10-31T09:36:11.553Z,1008.68
2022-10-31T09:37:11.541Z,1008.68
2022-10-31T09:38:11.533Z,1008.68
2022-10-31T09:39:11.534Z,1008.68
2022-10-31T09:40:11.502Z,1008.67
2022-10-31T09:41:11.502Z,1008.67
2022-10-31T09:42:11.485Z,1008.66
2022-10-31T09:43:11.481Z,1008.65
2022-10-31T09:44:11.470Z,1008.67
2022-10-31T09:45:11.472Z,1008.66
2022-10-31T09:46:11.440Z,1008.66
2022-10-31T09:47:11.445Z,1008.66
2022-10-31T09:48:11.426Z,1008.66
2022-10-31T09:49:11.500Z,1008.64
2022-10-31T09:50:11.417Z,1008.64
2022-10-31T09:51:11.389Z,1008.63
2022-10-31T09:53:11.378Z,1008.64
2022-10-31T09:54:11.353Z,1008.64
2022-10-31T09:55:11.350Z,1008.64
2022-10-31T09:56:11.344Z,1008.62
2022-10-31T09:57:11.325Z,1008.62
2022-10-31T09:58:11.325Z,1008.61
2022-10-31T09:59:11.309Z,1008.60
2022-10-31T10:00:11.293Z,1008.59
2022-10-31T10:01:11.415Z,1008.58
2022-10-31T10:02:11.383Z,1008.57
2022-10-31T10:03:11.277Z,1008.57
2022-10-31T10:04:11.247Z,1008.56
2022-10-31T10:05:11.246Z,1008.56
2022-10-31T10:06:11.233Z,1008.54
2022-10-31T10:07:11.218Z,1008.53
2022-10-31T10:08:11.203Z,1008.51
2022-10-31T10:09:11.271Z,1008.51
2022-10-31T10:10:11.182Z,1008.48
2022-10-31T10:11:11.174Z,1008.48
2022-10-31T10:12:11.164Z,1008.46
2022-10-31T10:13:11.482Z,1008.44
2022-10-31T10:14:11.132Z,1008.42
2022-10-31T10:15:11.129Z,1008.40
2022-10-31T10:16:11.127Z,1008.39
2022-10-31T10:17:11.112Z,1008.39
2022-10-31T10:18:11.102Z,1008.40
2022-10-31T10:19:11.104Z,1008.39
2022-10-31T10:20:11.600Z,1008.40
2022-10-31T10:21:11.068Z,1008.40
2022-10-31T10:22:11.054Z,1008.41
2022-10-31T10:23:11.050Z,1008.42
2022-10-31T10:24:11.034Z,1008.42
2022-10-31T10:25:11.040Z,1008.42
2022-10-31T10:26:11.468Z,1008.40
2022-10-31T10:27:11.007Z,1008.38
2022-10-31T10:28:10.987Z,1008.37
2022-10-31T10:29:10.980Z,1008.36
2022-10-31T10:30:10.967Z,1008.35
2022-10-31T10:31:10.989Z,1008.36
2022-10-31T10:32:10.965Z,1008.37
2022-10-31T10:33:10.947Z,1008.38
2022-10-31T10:34:10.941Z,1008.39
2022-10-31T10:35:10.930Z,1008.39
2022-10-31T10:36:10.904Z,1008.39
2022-10-31T10:37:10.897Z,1008.38
2022-10-31T10:38:10.931Z,1008.35
2022-10-31T10:39:10.871Z,1008.31
2022-10-31T10:40:10.861Z,1008.27
2022-10-31T10:41:10.854Z,1008.24
2022-10-31T10:42:10.839Z,1008.21
2022-10-31T10:43:10.836Z,1008.20
2022-10-31T10:44:10.847Z,1008.20
2022-10-31T10:45:10.815Z,1008.19
2022-10-31T10:46:11.938Z,1008.19
2022-10-31T10:47:10.788Z,1008.18
2022-10-31T10:48:10.802Z,1008.17
2022-10-31T10:49:10.764Z,1008.17
2022-10-31T10:50:10.770Z,1008.17
2022-10-31T10:51:25.437Z,1008.17
2022-10-31T10:52:26.979Z,1008.17
2022-10-31T10:53:10.735Z,1008.18
2022-10-31T10:54:10.824Z,1008.17
2022-10-31T10:55:10.717Z,1008.16
2022-10-31T10:56:10.714Z,1008.14
2022-10-31T10:57:10.690Z,1008.12
2022-10-31T10:58:10.677Z,1008.10
2022-10-31T10:59:10.656Z,1008.08
2022-10-31T11:00:10.653Z,1008.06
2022-10-31T11:01:10.868Z,1008.05
2022-10-31T11:02:10.646Z,1008.02
2022-10-31T11:03:10.619Z,1008.02
2022-10-31T11:04:10.604Z,1007.99
2022-10-31T11:05:10.592Z,1007.99
2022-10-31T11:06:10.594Z,1007.97
2022-10-31T11:07:10.580Z,1007.96
2022-10-31T11:08:10.575Z,1007.96
2022-10-31T11:09:10.555Z,1007.92
2022-10-31T11:10:10.543Z,1007.90
2022-10-31T11:11:10.541Z,1007.87
2022-10-31T11:12:10.522Z,1007.87
2022-10-31T11:13:10.538Z,1007.86
2022-10-31T11:14:10.514Z,1007.86
2022-10-31T11:15:10.501Z,1007.85
2022-10-31T11:16:10.477Z,1007.84
2022-10-31T11:17:10.502Z,1007.84
2022-10-31T11:18:10.471Z,1007.83
2022-10-31T11:19:10.447Z,1007.80
2022-10-31T11:20:14.708Z,1007.77
2022-10-31T11:21:10.441Z,1007.75
2022-10-31T11:22:10.409Z,1007.70
2022-10-31T11:23:10.931Z,1007.68
2022-10-31T11:24:10.444Z,1007.65
2022-10-31T11:25:10.386Z,1007.64
2022-10-31T11:26:10.377Z,1007.63
2022-10-31T11:27:10.389Z,1007.62
2022-10-31T11:28:10.455Z,1007.61
2022-10-31T11:29:10.373Z,1007.59
2022-10-31T11:30:10.771Z,1007.59
2022-10-31T11:31:10.341Z,1007.58
2022-10-31T11:32:10.306Z,1007.57
2022-10-31T11:33:10.289Z,1007.55
2022-10-31T11:34:10.288Z,1007.54
2022-10-31T11:35:10.275Z,1007.51
2022-10-31T11:36:10.301Z,1007.50
2022-10-31T11:37:10.265Z,1007.48
2022-10-31T11:38:10.243Z,1007.49
2022-10-31T11:39:10.238Z,1007.48
2022-10-31T11:40:10.224Z,1007.48
2022-10-31T11:41:10.229Z,1007.47
2022-10-31T11:42:10.196Z,1007.46
2022-10-31T11:43:10.182Z,1007.46
2022-10-31T11:44:10.186Z,1007.46
2022-10-31T11:45:10.200Z,1007.46
2022-10-31T11:46:10.179Z,1007.45
2022-10-31T11:47:10.141Z,1007.43
2022-10-31T11:48:10.164Z,1007.42
2022-10-31T11:49:10.122Z,1007.38
2022-10-31T11:50:10.119Z,1007.36
2022-10-31T11:51:10.100Z,1007.33
2022-10-31T11:52:10.114Z,1007.29
2022-10-31T11:53:10.079Z,1007.24
2022-10-31T11:54:10.091Z,1007.20
2022-10-31T11:55:10.060Z,1007.16
2022-10-31T11:56:10.055Z,1007.13
2022-10-31T11:57:10.052Z,1007.10
2022-10-31T11:58:10.048Z,1007.07
2022-10-31T11:59:10.058Z,1007.06
2022-10-31T12:00:10.010Z,1007.05
2022-10-31T12:01:10.029Z,1007.03
2022-10-31T12:02:10.119Z,1007.03
2022-10-31T12:03:09.978Z,1007.03
2022-10-31T12:04:09.967Z,1007.03
2022-10-31T12:05:09.973Z,1007.01
2022-10-31T12:06:09.949Z,1007.00
2022-10-31T12:07:09.997Z,1007.00
2022-10-31T12:08:09.928Z,1007.00
2022-10-31T12:09:09.956Z,1007.01
2022-10-31T12:10:09.903Z,1007.01
2022-10-31T12:11:09.904Z,1007.02
2022-10-31T12:12:09.883Z,1007.03
2022-10-31T12:13:09.865Z,1007.03
2022-10-31T12:14:09.875Z,1007.02
2022-10-31T12:16:09.667Z,1006.97
2022-10-31T12:17:10.613Z,1006.97
2022-10-31T12:18:10.609Z,1006.96
2022-10-31T12:19:10.604Z,1006.95
2022-10-31T12:20:10.592Z,1006.95
2022-10-31T12:21:10.579Z,1006.94
2022-10-31T12:22:10.604Z,1006.92
2022-10-31T12:23:10.550Z,1006.90
2022-10-31T12:24:10.534Z,1006.88
2022-10-31T12:25:10.549Z,1006.86
2022-10-31T12:26:10.528Z,1006.83
2022-10-31T12:27:10.538Z,1006.81
2022-10-31T12:28:10.509Z,1006.80
2022-10-31T12:29:10.481Z,1006.80
2022-10-31T12:30:10.476Z,1006.80
2022-10-31T12:31:10.473Z,1006.79
2022-10-31T12:32:10.479Z,1006.80
2022-10-31T12:33:10.444Z,1006.80
2022-10-31T12:34:10.438Z,1006.80
2022-10-31T12:35:10.454Z,1006.80
2022-10-31T12:36:14.249Z,1006.80
2022-10-31T12:37:10.419Z,1006.80
2022-10-31T12:38:10.426Z,1006.80
2022-10-31T12:39:10.374Z,1006.80
2022-10-31T12:40:10.374Z,1006.79
2022-10-31T12:41:10.357Z,1006.79
2022-10-31T12:42:10.355Z,1006.80
2022-10-31T12:43:10.343Z,1006.81
2022-10-31T12:44:10.374Z,1006.82
2022-10-31T12:45:10.314Z,1006.82
2022-10-31T12:46:10.317Z,1006.81
2022-10-31T12:47:10.288Z,1006.82
2022-10-31T12:48:10.293Z,1006.81
2022-10-31T12:49:10.292Z,1006.80
2022-10-31T12:50:10.318Z,1006.78
2022-10-31T12:51:10.248Z,1006.75
2022-10-31T12:52:10.235Z,1006.73
2022-10-31T12:53:10.243Z,1006.68
2022-10-31T12:54:10.224Z,1006.63
2022-10-31T12:55:10.190Z,1006.57
2022-10-31T12:56:10.223Z,1006.51
2022-10-31T12:57:11.017Z,1006.45
2022-10-31T12:58:10.170Z,1006.38
2022-10-31T12:59:10.158Z,1006.32
2022-10-31T13:00:10.173Z,1006.28
2022-10-31T13:01:10.319Z,1006.23
2022-10-31T13:02:10.206Z,1006.18
2022-10-31T13:03:10.128Z,1006.14
2022-10-31T13:04:10.135Z,1006.10
2022-10-31T13:05:10.104Z,1006.07
2022-10-31T13:06:10.115Z,1006.05
2022-10-31T13:07:10.068Z,1006.05
2022-10-31T13:08:10.081Z,1006.05
2022-10-31T13:09:10.068Z,1006.06
2022-10-31T13:10:10.060Z,1006.07
2022-10-31T13:11:10.043Z,1006.07
2022-10-31T13:12:10.041Z,1006.06
2022-10-31T13:13:10.061Z,1006.05
2022-10-31T13:14:09.997Z,1006.04
2022-10-31T13:15:09.975Z,1006.02
2022-10-31T13:16:10.018Z,1006.00
2022-10-31T13:17:09.981Z,1005.97
2022-10-31T13:18:09.951Z,1005.93
2022-10-31T13:19:09.957Z,1005.90
2022-10-31T13:20:09.942Z,1005.86
2022-10-31T13:21:09.933Z,1005.83
2022-10-31T13:22:09.937Z,1005.81
2022-10-31T13:23:18.136Z,1005.80
2022-10-31T13:24:09.884Z,1005.81
2022-10-31T13:25:09.895Z,1005.82
2022-10-31T13:26:09.858Z,1005.83
2022-10-31T13:27:09.891Z,1005.82
2022-10-31T13:28:09.905Z,1005.83
2022-10-31T13:29:09.841Z,1005.82
2022-10-31T13:30:09.821Z,1005.80
2022-10-31T13:31:09.822Z,1005.78
2022-10-31T13:32:09.829Z,1005.76
2022-10-31T13:33:09.847Z,1005.72
2022-10-31T13:34:09.777Z,1005.70
2022-10-31T13:35:09.767Z,1005.68
2022-10-31T13:36:09.750Z,1005.68
2022-10-31T13:37:09.758Z,1005.68
2022-10-31T13:38:09.738Z,1005.68
2022-10-31T13:39:09.741Z,1005.68
2022-10-31T13:40:09.720Z,1005.67
2022-10-31T13:41:09.707Z,1005.65
2022-10-31T13:42:09.693Z,1005.63
2022-10-31T13:43:10.041Z,1005.61
2022-10-31T13:44:09.679Z,1005.59
2022-10-31T13:45:09.670Z,1005.58
2022-10-31T13:46:09.640Z,1005.57
2022-10-31T13:47:09.653Z,1005.56
2022-10-31T13:48:09.632Z,1005.56
2022-10-31T13:49:09.641Z,1005.56
2022-10-31T13:50:09.628Z,1005.56
2022-10-31T13:51:09.592Z,1005.55
2022-10-31T13:52:09.584Z,1005.54
2022-10-31T13:53:09.585Z,1005.55
2022-10-31T13:54:09.607Z,1005.54
2022-10-31T13:55:09.598Z,1005.53
2022-10-31T13:56:09.541Z,1005.51
2022-10-31T13:57:09.944Z,1005.50
2022-10-31T13:58:09.515Z,1005.49
2022-10-31T13:59:09.518Z,1005.48
2022-10-31T14:00:09.494Z,1005.48
2022-10-31T14:01:09.706Z,1005.47
2022-10-31T14:02:09.558Z,1005.46
2022-10-31T14:03:09.519Z,1005.45
2022-10-31T14:04:15.655Z,1005.45
2022-10-31T14:05:11.315Z,1005.44
2022-10-31T14:06:09.443Z,1005.43
2022-10-31T14:07:09.459Z,1005.42
2022-10-31T14:08:09.430Z,1005.41
2022-10-31T14:09:09.424Z,1005.41
2022-10-31T14:10:09.434Z,1005.39
2022-10-31T14:11:09.594Z,1005.39
2022-10-31T14:12:09.356Z,1005.39
2022-10-31T14:13:09.353Z,1005.38
2022-10-31T14:14:09.398Z,1005.37
2022-10-31T14:15:09.376Z,1005.35
2022-10-31T14:16:09.321Z,1005.33
2022-10-31T14:17:09.335Z,1005.31
2022-10-31T14:18:09.294Z,1005.28
2022-10-31T14:19:09.306Z,1005.27
2022-10-31T14:20:09.458Z,1005.27
2022-10-31T14:21:09.287Z,1005.27
2022-10-31T14:22:09.361Z,1005.27
2022-10-31T14:23:09.273Z,1005.27
2022-10-31T14:24:09.244Z,1005.26
2022-10-31T14:25:09.234Z,1005.25
2022-10-31T14:26:09.217Z,1005.24
2022-10-31T14:27:09.238Z,1005.22
2022-10-31T14:28:09.192Z,1005.20
2022-10-31T14:29:10.138Z,1005.18
2022-10-31T14:30:09.268Z,1005.16
2022-10-31T14:31:09.153Z,1005.15
2022-10-31T14:32:09.145Z,1005.14
2022-10-31T14:33:09.144Z,1005.12
2022-10-31T14:34:09.172Z,1005.12
2022-10-31T14:35:09.115Z,1005.10
2022-10-31T14:36:09.108Z,1005.05
2022-10-31T14:37:09.105Z,1005.01
2022-10-31T14:38:09.098Z,1004.95
2022-10-31T14:39:09.097Z,1004.92
2022-10-31T14:40:09.124Z,1004.91
2022-10-31T14:41:09.052Z,1004.93
2022-10-31T14:42:09.042Z,1004.98
2022-10-31T14:43:09.030Z,1005.05
2022-10-31T14:44:09.015Z,1005.12
2022-10-31T14:45:09.021Z,1005.21
2022-10-31T14:46:09.024Z,1005.32
2022-10-31T14:47:08.987Z,1005.43
2022-10-31T14:48:08.966Z,1005.50
2022-10-31T14:49:08.973Z,1005.55
2022-10-31T14:50:08.981Z,1005.54
2022-10-31T14:51:08.951Z,1005.49
2022-10-31T14:52:08.944Z,1005.42
2022-10-31T14:53:08.918Z,1005.34
2022-10-31T14:54:09.647Z,1005.26
2022-10-31T14:55:08.911Z,1005.18
2022-10-31T14:56:08.875Z,1005.13
2022-10-31T14:57:09.052Z,1005.11
2022-10-31T14:58:08.874Z,1005.11
2022-10-31T14:59:08.856Z,1005.13
2022-10-31T15:00:08.957Z,1005.16
2022-10-31T15:01:09.770Z,1005.18
2022-10-31T15:02:08.964Z,1005.21
2022-10-31T15:03:08.821Z,1005.23
2022-10-31T15:04:25.312Z,1005.24
2022-10-31T15:05:08.844Z,1005.24
2022-10-31T15:06:08.776Z,1005.25
2022-10-31T15:07:08.780Z,1005.24
2022-10-31T15:08:08.803Z,1005.24
2022-10-31T15:09:08.750Z,1005.24
2022-10-31T15:10:08.738Z,1005.25
2022-10-31T15:11:08.727Z,1005.25
2022-10-31T15:12:08.721Z,1005.25
2022-10-31T15:13:08.697Z,1005.24
2022-10-31T15:14:08.736Z,1005.24
2022-10-31T15:15:08.695Z,1005.23
2022-10-31T15:16:08.660Z,1005.23
2022-10-31T15:17:08.675Z,1005.22
2022-10-31T15:18:08.662Z,1005.19
2022-10-31T15:19:08.660Z,1005.16
2022-10-31T15:20:08.627Z,1005.13
2022-10-31T15:21:11.573Z,1005.11
2022-10-31T15:22:08.639Z,1005.08
2022-10-31T15:23:08.589Z,1005.04
2022-10-31T15:24:08.596Z,1005.02
2022-10-31T15:25:08.592Z,1005.00
2022-10-31T15:26:08.591Z,1004.98
2022-10-31T15:27:08.599Z,1004.98
2022-10-31T15:28:08.547Z,1004.99
2022-10-31T15:29:08.537Z,1005.00
2022-10-31T15:30:08.540Z,1005.02
2022-10-31T15:31:08.538Z,1005.02
2022-10-31T15:32:08.493Z,1005.04
2022-10-31T15:33:08.483Z,1005.06
2022-10-31T15:34:08.534Z,1005.08
2022-10-31T15:35:08.458Z,1005.08
2022-10-31T15:36:08.443Z,1005.07
2022-10-31T15:37:08.458Z,1005.05
2022-10-31T15:38:08.443Z,1005.03
2022-10-31T15:39:08.420Z,1005.03
2022-10-31T15:40:08.423Z,1005.03
2022-10-31T15:41:08.428Z,1005.04
2022-10-31T15:42:08.381Z,1005.04
2022-10-31T15:43:08.383Z,1005.04
2022-10-31T15:44:08.358Z,1005.04
2022-10-31T15:45:08.352Z,1005.02
2022-10-31T15:46:08.331Z,1004.98
2022-10-31T15:47:11.908Z,1004.92
2022-10-31T15:48:08.328Z,1004.86
2022-10-31T15:49:08.317Z,1004.82
2022-10-31T15:50:08.287Z,1004.80
2022-10-31T15:51:08.301Z,1004.81
2022-10-31T15:52:08.276Z,1004.84
2022-10-31T15:53:08.285Z,1004.87
2022-10-31T15:54:08.249Z,1004.90
2022-10-31T15:55:08.271Z,1004.92
2022-10-31T15:56:08.234Z,1004.94
2022-10-31T15:57:08.226Z,1004.94
2022-10-31T15:58:08.233Z,1004.93
2022-10-31T15:59:08.215Z,1004.92
2022-10-31T16:00:08.186Z,1004.90
2022-10-31T16:01:08.319Z,1004.87